Time;durP1;ratioP1;P1;durP2;ratioP2;P2;SDS_P1;SDS_P2;PMS_P1;PMS_P2;Temp;Humidity;BMP_temperature;BMP_pressure;BME280_temperature;BME280_humidity;BME280_pressure;Samples;Min_cycle;Max_cycle;Signal;HPM_P1;HPM_P2
2022/09/07 00:02:25;;;;;;;4.97;3.10;;;;;;;14.83;94.53;95478.13;5100960;28;20035;-68
2022/09/07 00:04:52;;;;;;;8.30;3.10;;;;;;;14.83;94.66;95483.38;5103834;27;20049;-67
2022/09/07 00:07:19;;;;;;;4.82;3.22;;;;;;;14.68;95.44;95471.63;5098895;28;20774;-68
2022/09/07 00:09:46;;;;;;;5.30;3.10;;;;;;;14.77;95.56;95490.38;5103922;27;20040;-68
2022/09/07 00:12:13;;;;;;;4.50;3.08;;;;;;;14.71;96.13;95481.66;5103716;27;20048;-68
2022/09/07 00:14:40;;;;;;;5.50;3.10;;;;;;;14.64;96.07;95482.84;5101784;27;20086;-68
2022/09/07 00:17:06;;;;;;;3.25;2.65;;;;;;;14.58;96.67;95487.22;5098204;27;20055;-68
2022/09/07 00:19:33;;;;;;;4.15;3.30;;;;;;;14.40;97.23;95463.84;5101889;28;20066;-68
2022/09/07 00:22:00;;;;;;;6.28;3.15;;;;;;;14.56;97.19;95489.25;5081066;28;20043;-67
2022/09/07 00:24:27;;;;;;;6.00;3.42;;;;;;;14.46;97.50;95483.88;5101009;28;20052;-68
2022/09/07 00:26:55;;;;;;;7.13;3.30;;;;;;;14.32;97.82;95472.91;5100079;28;20044;-68
2022/09/07 00:29:22;;;;;;;5.15;3.45;;;;;;;14.28;98.20;95477.84;5099083;28;20039;-68
2022/09/07 00:31:49;;;;;;;5.68;3.58;;;;;;;14.28;98.45;95483.06;5100242;28;20050;-68
2022/09/07 00:34:16;;;;;;;7.97;3.58;;;;;;;14.25;98.95;95488.78;5103094;28;20289;-68
2022/09/07 00:36:43;;;;;;;8.23;3.20;;;;;;;14.18;99.37;95485.53;5099620;28;20444;-68
2022/09/07 00:39:10;;;;;;;5.07;4.13;;;;;;;14.11;99.71;95492.72;5100225;28;20039;-68
2022/09/07 00:41:37;;;;;;;5.32;2.92;;;;;;;13.93;100.00;95476.19;5102476;28;20051;-68
2022/09/07 00:44:41;;;;;;;4.28;3.13;;;;;;;13.92;100.00;95490.34;5103581;28;20043;-68
2022/09/07 00:47:16;;;;;;;8.00;3.25;;;;;;;13.87;100.00;95487.63;5103047;28;20643;-68
2022/09/07 00:49:48;;;;;;;5.25;4.00;;;;;;;13.77;100.00;95471.72;5099237;28;20479;-67
2022/09/07 00:52:16;;;;;;;11.02;3.70;;;;;;;13.80;100.00;95486.97;5083458;28;20047;-68
2022/09/07 00:54:47;;;;;;;8.20;3.55;;;;;;;13.77;100.00;95483.00;5100433;28;20043;-68
2022/09/07 00:57:14;;;;;;;6.18;4.30;;;;;;;13.68;100.00;95478.38;5101022;28;20046;-66
2022/09/07 00:59:45;;;;;;;5.47;3.75;;;;;;;13.70;100.00;95484.16;5101176;28;20448;-66
2022/09/07 01:02:15;;;;;;;12.48;4.22;;;;;;;13.65;100.00;95481.44;5100141;28;20067;-65
2022/09/07 01:04:50;;;;;;;4.25;3.30;;;;;;;13.64;100.00;95477.25;5103122;28;20043;-66
2022/09/07 01:07:17;;;;;;;;;;;;;;;13.62;100.00;95480.09;5081484;28;20044;-65
2022/09/07 01:09:46;;;;;;;4.15;3.45;;;;;;;13.48;100.00;95473.56;5100073;28;19933;-65
2022/09/07 01:12:13;;;;;;;8.75;4.25;;;;;;;13.42;100.00;95475.28;5103251;28;20075;-66
2022/09/07 01:14:45;;;;;;;7.22;3.20;;;;;;;13.44;100.00;95468.00;5098993;28;20084;-65
2022/09/07 01:17:49;;;;;;;5.25;3.67;;;;;;;13.43;100.00;95466.38;5079636;28;20044;-65
2022/09/07 01:20:36;;;;;;;4.88;3.53;;;;;;;13.42;100.00;95467.44;5103046;28;20054;-67
2022/09/07 01:23:21;;;;;;;7.78;4.18;;;;;;;13.37;100.00;95467.34;5100291;28;20122;-66
2022/09/07 01:26:15;;;;;;;8.52;4.05;;;;;;;13.28;100.00;95459.03;5100317;28;20048;-65
2022/09/07 01:28:46;;;;;;;5.65;3.90;;;;;;;13.28;100.00;95463.47;5099972;28;20917;-65
2022/09/07 01:31:33;;;;;;;7.88;4.18;;;;;;;13.29;100.00;95459.81;5102682;28;20051;-66
2022/09/07 01:34:02;;;;;;;3.63;3.30;;;;;;;13.19;100.00;95455.97;5081125;28;20046;-66
2022/09/07 01:36:49;;;;;;;6.72;3.72;;;;;;;13.15;100.00;95452.25;5098673;28;20050;-65
2022/09/07 01:39:21;;;;;;;7.20;4.30;;;;;;;13.15;100.00;95459.28;5101783;28;20040;-66
2022/09/07 01:41:54;;;;;;;7.03;3.83;;;;;;;13.14;100.00;95453.28;5106171;27;20047;-66
2022/09/07 01:44:59;;;;;;;7.82;3.45;;;;;;;13.14;100.00;95457.69;5103854;27;20044;-65
2022/09/07 01:47:44;;;;;;;6.20;3.38;;;;;;;13.09;100.00;95461.03;5103365;28;20130;-66
2022/09/07 01:50:26;;;;;;;8.43;3.80;;;;;;;13.06;100.00;95456.25;5105298;27;20048;-66
2022/09/07 01:52:56;;;;;;;5.20;3.90;;;;;;;13.00;100.00;95457.19;5104889;27;20044;-66
2022/09/07 01:55:46;;;;;;;6.10;4.68;;;;;;;12.92;100.00;95444.44;5103000;27;20065;-65
2022/09/07 01:58:25;;;;;;;4.95;3.63;;;;;;;12.99;100.00;95455.56;5105918;27;20127;-66
2022/09/07 02:00:59;;;;;;;6.93;4.15;;;;;;;12.98;100.00;95453.97;5103909;27;20059;-65
2022/09/07 02:03:34;;;;;;;5.35;4.03;;;;;;;12.97;100.00;95447.16;5102278;28;20059;-66
2022/09/07 02:06:30;;;;;;;4.72;3.95;;;;;;;12.93;100.00;95452.06;5083749;28;20651;-65
2022/09/07 02:09:02;;;;;;;4.43;3.78;;;;;;;12.88;100.00;95444.09;5105141;27;20048;-65
2022/09/07 02:11:37;;;;;;;4.80;3.75;;;;;;;12.86;100.00;95445.38;5105137;27;20567;-65
2022/09/07 02:14:29;;;;;;;6.68;3.95;;;;;;;12.87;100.00;95445.13;5102576;28;20586;-65
2022/09/07 02:17:03;;;;;;;8.85;3.85;;;;;;;12.86;100.00;95445.38;5101181;27;20047;-66
2022/09/07 02:19:49;;;;;;;8.07;4.60;;;;;;;12.81;100.00;95439.00;5105156;27;20049;-65
2022/09/07 02:22:21;;;;;;;6.60;4.18;;;;;;;12.77;100.00;95448.31;5103736;28;20035;-66
2022/09/07 02:24:53;;;;;;;5.53;3.92;;;;;;;12.75;100.00;95445.16;5103589;27;20048;-66
2022/09/07 02:27:25;;;;;;;8.00;4.22;;;;;;;12.71;100.00;95441.41;5106371;27;20120;-66
2022/09/07 02:29:53;;;;;;;5.55;3.63;;;;;;;12.73;100.00;95436.75;5103633;27;20094;-66
2022/09/07 02:32:20;;;;;;;6.03;4.30;;;;;;;12.75;100.00;95439.94;5106428;27;20532;-66
2022/09/07 02:34:47;;;;;;;6.13;3.90;;;;;;;12.66;100.00;95428.25;5101647;28;20050;-66
2022/09/07 02:37:15;;;;;;;10.82;5.28;;;;;;;12.69;100.00;95430.38;5087548;28;20040;-66
2022/09/07 02:39:42;;;;;;;5.68;4.25;;;;;;;12.63;100.00;95431.28;5084944;28;20043;-66
2022/09/07 02:42:09;;;;;;;11.43;4.55;;;;;;;12.67;100.00;95427.19;5084905;28;20521;-66
2022/09/07 02:44:40;;;;;;;10.63;4.25;;;;;;;12.65;100.00;95433.69;5102594;28;20039;-66
2022/09/07 02:47:32;;;;;;;11.23;4.63;;;;;;;12.63;100.00;95426.84;5102024;27;20035;-66
2022/09/07 02:50:20;;;;;;;8.90;4.63;;;;;;;12.58;100.00;95431.97;5100104;28;20440;-65
2022/09/07 02:52:49;;;;;;;9.18;4.65;;;;;;;12.56;100.00;95435.84;5101601;27;20083;-66
2022/09/07 02:55:58;;;;;;;8.60;4.60;;;;;;;12.59;100.00;95436.19;5084083;28;20073;-66
2022/09/07 02:58:34;;;;;;;4.85;3.92;;;;;;;12.57;100.00;95440.06;5070115;28;20036;-66
2022/09/07 03:01:24;;;;;;;6.05;4.15;;;;;;;12.54;100.00;95432.66;5101744;27;20677;-66
2022/09/07 03:04:22;;;;;;;8.57;4.43;;;;;;;12.47;100.00;95437.22;5102594;28;20069;-66
2022/09/07 03:07:12;;;;;;;5.45;4.85;;;;;;;12.47;100.00;95437.22;5100098;28;20050;-66
2022/09/07 03:09:47;;;;;;;7.35;4.70;;;;;;;12.47;100.00;95442.44;5100274;28;20055;-66
2022/09/07 03:12:15;;;;;;;5.03;4.32;;;;;;;12.46;100.00;95451.28;5105183;27;20428;-66
2022/09/07 03:14:43;;;;;;;8.07;4.63;;;;;;;12.38;100.00;95439.38;5101507;28;20047;-66
2022/09/07 03:17:10;;;;;;;6.32;4.03;;;;;;;12.40;100.00;95448.56;5098687;27;20048;-66
2022/09/07 03:19:37;;;;;;;7.20;4.10;;;;;;;12.37;100.00;95454.25;5082980;28;20068;-66
2022/09/07 03:22:04;;;;;;;6.30;4.20;;;;;;;12.33;100.00;95452.31;5101284;27;20548;-66
2022/09/07 03:24:32;;;;;;;8.20;4.72;;;;;;;12.37;100.00;95448.22;5101242;27;20098;-66
2022/09/07 03:26:59;;;;;;;5.75;4.90;;;;;;;12.26;100.00;95449.00;5101743;28;20047;-65
2022/09/07 03:29:26;;;;;;;7.28;5.13;;;;;;;12.26;100.00;95451.63;5101803;27;20451;-66
2022/09/07 03:31:53;;;;;;;7.88;3.97;;;;;;;12.23;100.00;95447.66;5101302;27;20040;-65
2022/09/07 03:34:19;;;;;;;6.45;4.10;;;;;;;12.22;100.00;95446.06;5101909;28;20036;-65
2022/09/07 03:36:46;;;;;;;4.82;4.07;;;;;;;12.21;100.00;95455.72;5100831;28;20035;-67
2022/09/07 03:39:13;;;;;;;7.47;4.55;;;;;;;12.18;100.00;95456.16;5100858;28;20039;-65
2022/09/07 03:41:40;;;;;;;6.82;4.78;;;;;;;12.15;100.00;95464.44;5101304;28;20051;-66
2022/09/07 03:44:07;;;;;;;5.63;4.30;;;;;;;12.12;100.00;95467.50;5100830;28;20044;-66
2022/09/07 03:46:34;;;;;;;4.88;4.25;;;;;;;12.11;100.00;95449.44;5101677;28;20047;-66
2022/09/07 03:49:01;;;;;;;9.27;4.43;;;;;;;12.12;100.00;95453.63;5099453;27;20043;-65
2022/09/07 03:51:28;;;;;;;6.30;4.57;;;;;;;12.14;100.00;95467.28;5100755;28;20042;-66
2022/09/07 03:53:56;;;;;;;6.35;4.10;;;;;;;12.09;100.00;95451.50;5100971;28;20046;-66
2022/09/07 03:56:23;;;;;;;6.10;4.15;;;;;;;12.04;100.00;95460.78;5098613;27;20667;-66
2022/09/07 03:58:53;;;;;;;6.47;4.15;;;;;;;12.02;100.00;95460.22;5100805;28;20134;-66
2022/09/07 04:01:23;;;;;;;5.63;4.15;;;;;;;11.98;100.00;95460.91;5102191;28;20062;-66
2022/09/07 04:03:51;;;;;;;7.75;4.03;;;;;;;11.98;100.00;95463.50;5101361;28;20099;-66
2022/09/07 04:06:18;;;;;;;5.32;4.60;;;;;;;12.01;100.00;95461.25;5103601;27;20047;-66
2022/09/07 04:08:45;;;;;;;5.93;4.65;;;;;;;12.00;100.00;95470.09;5100794;28;20987;-66
2022/09/07 04:11:15;;;;;;;6.45;3.95;;;;;;;12.03;100.00;95469.66;5101649;28;20071;-66
2022/09/07 04:13:43;;;;;;;4.93;4.07;;;;;;;12.04;100.00;95470.44;5102497;27;20050;-66
2022/09/07 04:16:13;;;;;;;9.43;4.28;;;;;;;12.09;100.00;95467.16;5101635;28;20044;-66
2022/09/07 04:18:40;;;;;;;5.22;4.43;;;;;;;12.14;100.00;95464.69;5098477;28;20043;-66
2022/09/07 04:21:08;;;;;;;7.30;4.35;;;;;;;12.17;100.00;95474.66;5101466;28;20035;-66
2022/09/07 04:23:39;;;;;;;6.57;3.90;;;;;;;12.19;100.00;95470.00;5099296;28;20057;-66
2022/09/07 04:26:16;;;;;;;7.55;4.15;;;;;;;12.26;100.00;95467.28;5094825;28;20109;-65
2022/09/07 04:28:44;;;;;;;8.52;3.67;;;;;;;12.26;100.00;95478.53;5098775;28;20058;-66
2022/09/07 04:31:15;;;;;;;5.80;4.13;;;;;;;12.35;100.00;95471.16;5103381;28;20050;-66
2022/09/07 04:33:43;;;;;;;8.20;4.10;;;;;;;12.38;100.00;95468.88;5099661;28;21481;-66
2022/09/07 04:36:11;;;;;;;5.07;4.38;;;;;;;12.46;100.00;95473.00;5101027;28;20425;-66
2022/09/07 04:38:41;;;;;;;14.27;3.97;;;;;;;12.53;100.00;95475.47;5099970;28;20130;-66
2022/09/07 04:41:14;;;;;;;5.20;3.75;;;;;;;12.56;100.00;95472.44;5100278;28;20128;-66
2022/09/07 04:43:42;;;;;;;6.68;3.70;;;;;;;12.63;100.00;95475.72;5100262;28;20052;-66
2022/09/07 04:46:23;;;;;;;5.15;3.75;;;;;;;12.68;100.00;95473.22;5100243;28;20046;-66
2022/09/07 04:48:55;;;;;;;6.00;3.72;;;;;;;12.75;100.00;95471.28;5100015;28;20046;-65
2022/09/07 04:51:24;;;;;;;3.92;2.95;;;;;;;12.68;100.00;95460.16;5102955;28;20597;-66
2022/09/07 04:53:53;;;;;;;4.03;3.58;;;;;;;12.92;100.00;95475.81;5101213;28;20044;-66
2022/09/07 04:56:21;;;;;;;4.57;3.33;;;;;;;12.93;100.00;95466.97;5097137;28;20044;-66
2022/09/07 04:58:49;;;;;;;4.00;2.90;;;;;;;13.06;100.00;95471.94;5101061;28;20040;-66
2022/09/07 05:01:18;;;;;;;10.10;3.25;;;;;;;13.12;100.00;95476.22;5101630;28;20528;-66
2022/09/07 05:03:46;;;;;;;7.28;3.38;;;;;;;13.34;100.00;95488.72;5103542;28;20586;-66
2022/09/07 05:06:15;;;;;;;4.57;3.22;;;;;;;13.44;100.00;95486.31;5101267;28;20040;-65
2022/09/07 05:08:45;;;;;;;5.20;3.45;;;;;;;13.50;100.00;95477.50;5100142;28;20047;-66
2022/09/07 05:11:13;;;;;;;5.78;3.45;;;;;;;13.63;100.00;95480.88;5102406;28;20127;-66
2022/09/07 05:13:40;;;;;;;6.18;3.08;;;;;;;13.72;100.00;95484.72;5104474;28;20058;-66
2022/09/07 05:16:08;;;;;;;6.15;3.78;;;;;;;13.80;100.00;95478.34;5102498;28;20099;-66
2022/09/07 05:18:35;;;;;;;6.75;4.25;;;;;;;13.90;99.82;95481.09;5100748;27;20040;-66
2022/09/07 05:21:23;;;;;;;8.32;2.90;;;;;;;14.13;98.79;95486.25;5084743;28;20043;-66
2022/09/07 05:23:51;;;;;;;8.27;4.13;;;;;;;14.23;96.83;95493.47;5101403;28;20043;-66
2022/09/07 05:26:20;;;;;;;2.70;2.28;;;;;;;14.42;95.71;95482.75;5103645;27;20049;-67
2022/09/07 05:28:48;;;;;;;3.22;2.75;;;;;;;14.55;94.36;95487.69;5102802;28;20032;-67
2022/09/07 05:31:20;;;;;;;4.05;2.55;;;;;;;14.67;93.77;95490.22;5105555;27;20070;-67
2022/09/07 05:33:51;;;;;;;5.20;2.75;;;;;;;14.76;92.06;95488.00;5103927;27;20055;-67
2022/09/07 05:36:38;;;;;;;2.70;2.50;;;;;;;14.88;90.55;95480.81;5102518;27;20301;-67
2022/09/07 05:39:06;;;;;;;5.15;2.40;;;;;;;15.07;90.49;95497.06;5104727;28;20140;-67
2022/09/07 05:41:33;;;;;;;5.53;3.08;;;;;;;15.22;89.88;95486.78;5104872;27;20126;-67
2022/09/07 05:44:01;;;;;;;5.80;3.08;;;;;;;15.34;88.10;95489.28;5104503;28;20043;-67
2022/09/07 05:46:48;;;;;;;4.43;2.35;;;;;;;15.48;85.85;95490.50;5103275;28;20031;-67
2022/09/07 05:49:14;;;;;;;4.63;2.08;;;;;;;15.62;83.74;95484.88;5102895;27;20058;-67
2022/09/07 05:51:41;;;;;;;3.58;2.58;;;;;;;15.75;83.14;95487.13;5104529;28;20039;-67
2022/09/07 05:54:09;;;;;;;2.42;1.90;;;;;;;15.82;82.41;95485.09;5105256;28;20163;-67
2022/09/07 05:56:36;;;;;;;3.42;2.13;;;;;;;15.96;80.94;95492.59;5102916;28;20472;-66
2022/09/07 05:59:03;;;;;;;4.97;2.40;;;;;;;16.04;80.73;95489.50;5106594;27;20122;-67
2022/09/07 06:01:30;;;;;;;5.75;2.33;;;;;;;16.12;78.21;95480.41;5085812;28;20437;-67
2022/09/07 06:03:57;;;;;;;6.85;2.13;;;;;;;16.23;79.60;95474.97;5086044;28;20445;-67
2022/09/07 06:06:24;;;;;;;5.15;2.10;;;;;;;16.41;78.33;95486.16;5104775;28;20071;-66
2022/09/07 06:08:52;;;;;;;4.28;2.25;;;;;;;16.49;78.41;95483.03;5106811;27;20040;-67
2022/09/07 06:11:22;;;;;;;3.22;2.00;;;;;;;16.63;76.95;95484.19;5104318;27;20071;-67
2022/09/07 06:13:49;;;;;;;3.65;2.13;;;;;;;16.74;73.32;95489.53;5084423;28;20401;-67
2022/09/07 06:16:18;;;;;;;3.50;1.98;;;;;;;16.80;73.18;95488.53;5104079;28;20039;-67
2022/09/07 06:18:48;;;;;;;5.80;2.35;;;;;;;16.88;72.93;95485.44;5102431;28;20058;-67
2022/09/07 06:21:20;;;;;;;6.38;2.10;;;;;;;16.95;73.98;95490.50;5102730;28;20063;-67
2022/09/07 06:23:49;;;;;;;3.35;1.65;;;;;;;16.97;72.44;95494.44;5102231;28;20040;-67
2022/09/07 06:26:17;;;;;;;2.88;2.10;;;;;;;17.17;73.07;95493.75;5103044;27;20435;-67
2022/09/07 06:28:47;;;;;;;2.92;1.92;;;;;;;17.25;72.11;95495.13;5103228;27;20039;-67
2022/09/07 06:31:18;;;;;;;3.97;2.25;;;;;;;17.34;71.65;95488.31;5103089;27;20317;-68
2022/09/07 06:33:46;;;;;;;4.50;2.25;;;;;;;17.36;71.51;95475.69;5103259;28;20134;-72
2022/09/07 06:36:26;;;;;;;2.67;2.03;;;;;;;17.44;72.84;95492.03;5084083;28;20397;-72
2022/09/07 06:38:55;;;;;;;3.42;2.67;;;;;;;17.57;73.00;95494.16;5102386;27;20042;-67
2022/09/07 06:41:25;;;;;;;2.72;2.15;;;;;;;17.57;72.81;95489.72;5102259;28;20449;-67
2022/09/07 06:44:17;;;;;;;7.78;2.63;;;;;;;17.74;73.43;95507.94;5100987;28;20530;-68
2022/09/07 06:46:44;;;;;;;3.90;2.20;;;;;;;17.73;72.13;95503.69;5102089;28;20046;-69
2022/09/07 06:49:31;;;;;;;2.38;1.88;;;;;;;17.88;73.46;95510.09;5087563;28;20448;-75
2022/09/07 06:51:57;;;;;;;2.67;1.95;;;;;;;18.04;73.34;95505.66;5073221;28;20142;-73
2022/09/07 06:54:24;;;;;;;6.38;2.00;;;;;;;18.11;71.28;95499.09;5085505;28;20057;-75
2022/09/07 06:57:11;;;;;;;3.28;2.30;;;;;;;18.35;70.27;95511.75;5090970;28;20043;-68
2022/09/07 06:59:38;;;;;;;4.75;1.80;;;;;;;18.53;70.15;95505.97;5102885;28;20440;-67
2022/09/07 07:02:06;;;;;;;3.90;2.30;;;;;;;18.69;68.48;95506.75;5101441;27;20131;-72
2022/09/07 07:04:34;;;;;;;1.98;1.80;;;;;;;18.74;67.44;95495.38;5082671;27;20044;-73
2022/09/07 07:07:11;;;;;;;5.05;1.83;;;;;;;18.90;66.26;95507.50;5100624;28;20055;-73
2022/09/07 07:09:38;;;;;;;3.38;2.53;;;;;;;19.03;64.58;95511.47;5082216;28;20559;-73
2022/09/07 07:12:05;;;;;;;6.95;2.17;;;;;;;19.09;63.52;95506.97;5071548;28;20036;-74
2022/09/07 07:14:32;;;;;;;2.97;1.75;;;;;;;19.08;63.18;95492.19;5105297;27;20043;-73
2022/09/07 07:17:03;;;;;;;8.95;2.35;;;;;;;19.34;63.30;95505.28;5082402;27;20047;-73
2022/09/07 07:19:30;;;;;;;3.05;1.75;;;;;;;19.59;62.31;95509.69;5101550;27;20081;-73
2022/09/07 07:21:58;;;;;;;4.55;1.65;;;;;;;19.63;61.50;95503.59;5103500;27;20050;-73
2022/09/07 07:24:44;;;;;;;4.75;2.28;;;;;;;19.81;60.55;95493.50;5082666;28;20093;-72
2022/09/07 07:27:11;;;;;;;2.97;2.33;;;;;;;19.92;60.80;95500.31;5083096;27;20215;-73
2022/09/07 07:29:38;;;;;;;2.08;1.50;;;;;;;20.00;60.43;95507.66;5101130;28;20055;-73
2022/09/07 07:32:05;;;;;;;2.83;1.90;;;;;;;20.12;58.97;95511.81;5083638;28;20081;-73
2022/09/07 07:34:32;;;;;;;4.25;2.38;;;;;;;20.28;59.42;95510.66;5081159;28;20051;-73
2022/09/07 07:36:59;;;;;;;2.83;1.98;;;;;;;20.46;59.31;95519.00;5101202;27;20031;-73
2022/09/07 07:39:26;;;;;;;3.78;1.73;;;;;;;20.51;58.42;95505.72;5083689;28;20040;-72
2022/09/07 07:42:13;;;;;;;2.30;1.85;;;;;;;20.68;58.31;95505.34;5101044;28;20147;-73
2022/09/07 07:44:40;;;;;;;5.15;2.22;;;;;;;20.88;57.57;95514.97;5066980;28;20482;-73
2022/09/07 07:47:07;;;;;;;3.15;2.03;;;;;;;20.68;56.76;95495.53;5086544;28;20039;-73
2022/09/07 07:49:33;;;;;;;3.42;1.70;;;;;;;20.95;57.10;95515.41;5083688;28;20729;-65
2022/09/07 07:52:00;;;;;;;3.60;2.10;;;;;;;20.98;57.73;95504.28;5107851;27;20050;-64
2022/09/07 07:54:47;;;;;;;5.72;1.95;;;;;;;21.14;56.85;95513.66;5081198;28;20514;-67
2022/09/07 07:57:17;;;;;;;5.65;1.88;;;;;;;21.35;56.14;95524.78;5103721;27;20116;-70
2022/09/07 07:59:45;;;;;;;7.18;1.95;;;;;;;21.43;56.68;95520.75;5082828;27;20056;-69
2022/09/07 08:02:15;;;;;;;1.75;1.30;;;;;;;21.51;55.87;95512.19;5103245;28;20043;-68
2022/09/07 08:04:44;;;;;;;4.03;1.88;;;;;;;21.54;54.88;95527.53;5081851;28;20043;-69
2022/09/07 08:07:11;;;;;;;4.10;2.03;;;;;;;21.71;55.20;95526.25;5103782;27;20039;-69
2022/09/07 08:09:43;;;;;;;3.72;1.90;;;;;;;21.74;55.14;95521.19;5082300;28;20048;-69
2022/09/07 08:12:13;;;;;;;3.75;1.85;;;;;;;21.76;54.23;95528.84;5103406;28;20097;-69
2022/09/07 08:14:39;;;;;;;6.22;2.55;;;;;;;21.93;55.08;95528.38;5101024;28;20043;-69
2022/09/07 08:17:13;;;;;;;3.60;1.75;;;;;;;22.13;53.68;95533.41;5101586;28;20047;-69
2022/09/07 08:19:40;;;;;;;6.85;2.22;;;;;;;22.30;53.16;95519.66;5098991;27;20035;-69
2022/09/07 08:22:09;;;;;;;2.13;1.90;;;;;;;22.50;53.15;95528.38;5099723;28;20040;-69
2022/09/07 08:24:36;;;;;;;4.57;2.10;;;;;;;22.62;52.70;95523.41;5101202;28;20051;-69
2022/09/07 08:27:03;;;;;;;7.55;2.25;;;;;;;22.77;52.44;95524.25;5101008;28;20436;-69
2022/09/07 08:29:30;;;;;;;3.58;1.95;;;;;;;22.67;51.63;95494.13;5103306;28;20043;-69
2022/09/07 08:32:02;;;;;;;4.50;2.10;;;;;;;22.94;50.71;95508.53;5101297;28;20504;-69
2022/09/07 08:34:29;;;;;;;5.38;2.20;;;;;;;23.06;50.53;95518.72;5101436;28;20048;-69
2022/09/07 08:36:55;;;;;;;2.72;1.98;;;;;;;23.13;50.57;95505.03;5101631;28;20500;-69
2022/09/07 08:39:22;;;;;;;11.95;3.40;;;;;;;23.27;49.34;95505.84;5100594;28;20039;-70
2022/09/07 08:42:03;;;;;;;3.28;1.73;;;;;;;23.31;49.24;95506.81;5100566;28;20103;-69
2022/09/07 08:44:32;;;;;;;6.45;2.28;;;;;;;23.45;48.56;95512.16;5099185;28;20259;-69
2022/09/07 08:47:11;;;;;;;3.83;2.40;;;;;;;23.57;50.68;95504.47;5101332;28;20081;-69
2022/09/07 08:49:45;;;;;;;6.13;2.20;;;;;;;23.64;48.29;95498.72;5104563;28;20123;-69
2022/09/07 08:52:38;;;;;;;8.52;2.35;;;;;;;23.87;48.60;95496.16;5104639;27;20043;-69
2022/09/07 08:55:30;;;;;;;2.13;1.92;;;;;;;23.98;49.08;95500.94;5093064;28;20534;-67
2022/09/07 08:58:25;;;;;;;3.97;2.10;;;;;;;24.10;47.31;95504.97;5103659;28;20039;-67
2022/09/07 09:01:15;;;;;;;6.30;2.08;;;;;;;23.85;47.48;95483.16;5104150;27;20536;-68
2022/09/07 09:04:01;;;;;;;2.55;1.77;;;;;;;23.95;47.68;95487.47;5091096;27;20509;-67
2022/09/07 09:07:16;;;;;;;2.88;2.03;;;;;;;24.13;46.69;95489.19;5116750;27;20536;-70
2022/09/07 09:09:49;;;;;;;3.25;2.40;;;;;;;24.18;46.56;95481.09;5102171;28;20620;-71
2022/09/07 09:12:40;;;;;;;6.10;2.55;;;;;;;24.38;48.31;95479.03;5104502;27;20092;-71
2022/09/07 09:15:22;;;;;;;5.20;2.22;;;;;;;24.53;46.35;95486.69;5106427;28;20055;-71
2022/09/07 09:18:27;;;;;;;3.65;2.78;;;;;;;24.60;45.82;95481.72;5085003;27;20076;-72
2022/09/07 09:20:58;;;;;;;5.18;2.72;;;;;;;24.74;45.65;95470.19;5102566;27;20538;-72
2022/09/07 09:23:50;;;;;;;5.55;3.28;;;;;;;24.84;44.02;95475.25;5105317;28;20136;-73
2022/09/07 09:26:28;;;;;;;3.47;2.92;;;;;;;25.06;43.09;95470.97;5087327;28;20047;-70
2022/09/07 09:28:56;;;;;;;6.35;2.92;;;;;;;25.21;45.27;95459.91;5083671;28;20032;-71
2022/09/07 09:31:31;;;;;;;5.55;2.42;;;;;;;25.32;44.46;95453.22;5108240;27;20048;-70
2022/09/07 09:34:03;;;;;;;5.00;2.30;;;;;;;25.50;44.00;95466.59;5105685;27;20051;-71
2022/09/07 09:36:34;;;;;;;3.92;2.53;;;;;;;25.69;43.83;95466.31;5103239;27;20054;-68
2022/09/07 09:39:23;;;;;;;4.13;2.38;;;;;;;25.93;41.41;95455.22;5103312;27;20092;-72
2022/09/07 09:41:52;;;;;;;5.25;2.45;;;;;;;26.07;42.52;95455.84;5104351;28;20130;-70
2022/09/07 09:44:22;;;;;;;4.60;2.50;;;;;;;26.08;41.24;95446.75;5088464;28;20050;-71
2022/09/07 09:46:53;;;;;;;3.53;2.88;;;;;;;26.21;42.02;95457.56;5111824;27;20048;-70
2022/09/07 09:49:44;;;;;;;2.88;1.92;;;;;;;26.51;41.76;95453.91;5091027;28;20173;-72
2022/09/07 09:52:22;;;;;;;4.05;2.35;;;;;;;26.73;39.57;95454.06;5081283;28;20044;-69
2022/09/07 09:55:01;;;;;;;2.90;2.30;;;;;;;26.79;39.85;95448.19;5105550;27;20067;-75
2022/09/07 09:58:08;;;;;;;2.95;2.42;;;;;;;26.66;39.95;95451.88;5109601;27;20176;-71
2022/09/07 10:01:10;;;;;;;5.47;2.38;;;;;;;26.99;39.76;95452.06;5085973;28;20071;-71
2022/09/07 10:04:22;;;;;;;2.40;2.15;;;;;;;27.35;37.71;95455.38;5087044;28;20517;-72
2022/09/07 10:06:54;;;;;;;3.83;2.70;;;;;;;27.01;37.42;95443.72;5103275;28;20611;-72
2022/09/07 10:09:25;;;;;;;;;;;;;;;27.39;36.19;95442.97;5110175;27;20377;-70
2022/09/07 10:11:58;;;;;;;3.25;2.83;;;;;;;27.33;36.77;95444.22;5106196;27;20269;-68
2022/09/07 10:14:41;;;;;;;2.45;2.15;;;;;;;27.35;37.07;95436.66;5107758;27;20067;-68
2022/09/07 10:17:18;;;;;;;6.45;2.45;;;;;;;27.36;37.35;95432.91;5101892;27;20079;-68
2022/09/07 10:19:44;;;;;;;3.60;2.60;;;;;;;27.42;37.37;95436.94;5082124;28;20101;-66
2022/09/07 10:22:30;;;;;;;3.25;2.40;;;;;;;26.38;37.00;95433.53;5103865;28;20127;-70
2022/09/07 10:24:59;;;;;;;3.72;3.10;;;;;;;26.66;37.23;95427.81;5108188;27;20052;-67
2022/09/07 10:27:35;;;;;;;2.95;2.67;;;;;;;26.88;36.84;95430.28;5103310;28;20541;-70
2022/09/07 10:30:11;;;;;;;5.95;2.35;;;;;;;27.06;35.83;95424.81;5105612;27;20389;-69
2022/09/07 10:32:56;;;;;;;7.13;2.65;;;;;;;27.11;36.55;95421.19;5104722;27;20048;-70
2022/09/07 10:35:47;;;;;;;2.60;2.38;;;;;;;27.56;36.63;95420.66;5083083;28;20104;-68
2022/09/07 10:38:19;;;;;;;2.67;2.15;;;;;;;27.83;36.20;95419.34;5105537;27;20043;-70
2022/09/07 10:40:59;;;;;;;4.43;2.50;;;;;;;28.18;35.13;95424.44;5097452;28;20126;-74
2022/09/07 10:43:36;;;;;;;3.13;2.15;;;;;;;28.29;34.25;95414.91;5082976;28;20043;-75
2022/09/07 10:46:14;;;;;;;2.28;2.05;;;;;;;28.65;33.19;95410.78;5101397;28;20047;-75
2022/09/07 10:49:24;;;;;;;2.78;2.20;;;;;;;29.03;34.42;95411.56;5082869;28;20040;-74
2022/09/07 10:52:12;;;;;;;2.75;1.88;;;;;;;28.95;32.34;95410.56;5102439;28;20051;-75
2022/09/07 10:54:59;;;;;;;3.45;1.88;;;;;;;28.81;33.96;95412.78;5085697;28;20474;-74
2022/09/07 10:58:08;;;;;;;2.97;2.03;;;;;;;29.01;31.54;95405.75;5085327;28;20078;-74
2022/09/07 11:00:47;;;;;;;2.17;1.98;;;;;;;29.10;32.92;95404.53;5049128;28;20051;-74
2022/09/07 11:03:48;;;;;;;3.55;1.90;;;;;;;28.89;32.88;95385.88;5102931;27;20092;-74
2022/09/07 11:06:24;;;;;;;4.85;1.90;;;;;;;29.20;31.88;95399.88;5083636;28;20552;-74
2022/09/07 11:09:39;;;;;;;2.75;1.88;;;;;;;29.22;32.05;95392.25;5084581;28;20032;-73
2022/09/07 11:12:17;;;;;;;4.50;2.20;;;;;;;29.57;33.67;95399.81;5099054;27;20126;-76
2022/09/07 11:14:51;;;;;;;9.40;4.45;;;;;;;29.79;32.70;95385.91;5086257;28;20075;-74
2022/09/07 11:17:25;;;;;;;2.17;1.90;;;;;;;29.44;31.04;95389.13;5102267;27;20043;-73
2022/09/07 11:20:03;;;;;;;4.63;2.38;;;;;;;28.40;31.71;95386.56;5099551;28;20031;-74
2022/09/07 11:22:33;;;;;;;3.13;2.20;;;;;;;27.89;32.73;95393.94;5097616;28;20047;-75
2022/09/07 11:25:23;;;;;;;2.67;2.13;;;;;;;28.39;31.31;95381.53;5105468;27;20118;-75
2022/09/07 11:28:20;;;;;;;4.05;2.35;;;;;;;28.35;32.51;95384.09;5082761;28;20162;-74
2022/09/07 11:30:57;;;;;;;2.22;2.00;;;;;;;28.94;33.50;95374.16;5081787;28;20050;-74
2022/09/07 11:33:44;;;;;;;3.50;2.40;;;;;;;29.76;31.94;95385.81;5098321;27;20043;-73
2022/09/07 11:36:39;;;;;;;3.97;2.20;;;;;;;30.08;30.84;95387.47;5094664;27;20551;-71
2022/09/07 11:39:17;;;;;;;2.63;1.98;;;;;;;30.21;30.78;95385.50;5094309;27;20036;-67
2022/09/07 11:41:56;;;;;;;2.30;2.05;;;;;;;29.70;29.80;95358.41;5082384;28;20124;-73
2022/09/07 11:44:44;;;;;;;3.08;2.03;;;;;;;30.20;29.39;95362.47;5082188;28;20497;-73
2022/09/07 11:47:29;;;;;;;6.88;2.20;;;;;;;30.49;29.44;95371.28;5096111;28;20473;-71
2022/09/07 11:49:56;;;;;;;3.00;1.92;;;;;;;30.64;28.97;95361.66;5100544;28;20135;-71
2022/09/07 11:52:33;;;;;;;2.83;1.85;;;;;;;31.02;28.97;95374.50;5100768;27;20614;-71
2022/09/07 11:55:05;;;;;;;2.40;1.92;;;;;;;30.39;27.92;95364.50;5100228;27;20054;-71
2022/09/07 11:57:47;;;;;;;7.53;2.55;;;;;;;30.23;27.82;95369.84;5099676;27;20113;-71
2022/09/07 12:00:22;;;;;;;4.90;2.67;;;;;;;30.92;28.77;95379.63;5086044;28;20040;-71
2022/09/07 12:02:52;;;;;;;2.03;1.50;;;;;;;31.47;26.17;95366.25;5079044;28;20083;-71
2022/09/07 12:05:29;;;;;;;2.20;1.58;;;;;;;31.33;27.18;95364.81;5082593;28;20051;-70
2022/09/07 12:08:58;;;;;;;6.13;1.73;;;;;;;32.02;26.81;95358.91;5083692;28;20364;-71